createdAt,value
2019-03-24T00:00:00.451Z,4.21
2019-03-24T00:02:30.219Z,4.14
2019-03-24T00:04:59.861Z,4.04
2019-03-24T00:07:29.733Z,4.02
2019-03-24T00:10:00.365Z,4.03
2019-03-24T00:12:30.050Z,3.99
2019-03-24T00:14:59.680Z,3.96
2019-03-24T00:17:29.479Z,3.98
2019-03-24T00:19:59.190Z,3.96
2019-03-24T00:22:28.830Z,3.94
2019-03-24T00:25:00.008Z,3.92
2019-03-24T00:27:31.870Z,3.94
2019-03-24T00:30:01.723Z,3.94
2019-03-24T00:32:31.407Z,3.92
2019-03-24T00:35:01.178Z,3.83
2019-03-24T00:37:33.839Z,3.74
2019-03-24T00:40:03.677Z,3.67
2019-03-24T00:42:33.386Z,3.63
2019-03-24T00:45:03.187Z,3.61
2019-03-24T00:47:33.946Z,3.60
2019-03-24T00:50:03.770Z,3.58
2019-03-24T00:52:35.470Z,3.51
2019-03-24T00:55:05.199Z,3.42
2019-03-24T00:57:37.581Z,3.36
2019-03-24T01:00:07.765Z,3.34
2019-03-24T01:02:37.781Z,3.36
2019-03-24T01:05:08.596Z,3.38
2019-03-24T01:07:41.210Z,3.36
2019-03-24T01:10:13.111Z,3.40
2019-03-24T01:12:42.797Z,3.27
2019-03-24T01:15:12.521Z,3.26
2019-03-24T01:17:46.977Z,3.18
2019-03-24T01:20:17.500Z,3.15
2019-03-24T01:22:48.339Z,3.16
2019-03-24T01:25:19.185Z,3.18
2019-03-24T01:27:49.976Z,3.17
2019-03-24T01:30:19.701Z,3.18
2019-03-24T01:32:49.337Z,3.17
2019-03-24T01:35:19.038Z,3.13
2019-03-24T01:37:52.235Z,2.41
2019-03-24T01:40:21.878Z,3.06
2019-03-24T01:42:51.573Z,3.04
2019-03-24T01:45:21.221Z,2.97
2019-03-24T01:47:52.094Z,2.90
2019-03-24T01:50:21.753Z,2.92
2019-03-24T01:52:51.381Z,2.90
2019-03-24T01:55:21.120Z,2.88
2019-03-24T01:57:52.114Z,2.97
2019-03-24T02:00:21.821Z,2.93
2019-03-24T02:02:51.406Z,2.88
2019-03-24T02:05:22.941Z,2.87
2019-03-24T02:07:53.655Z,2.79
2019-03-24T02:10:23.502Z,2.79
2019-03-24T02:12:53.187Z,2.52
2019-03-24T02:15:22.784Z,2.79
2019-03-24T02:17:52.387Z,2.90
2019-03-24T02:20:22.123Z,2.92
2019-03-24T02:22:51.775Z,2.90
2019-03-24T02:25:21.455Z,2.84
2019-03-24T02:27:53.162Z,2.79
2019-03-24T02:30:22.842Z,2.74
2019-03-24T02:32:52.420Z,2.71
2019-03-24T02:35:22.129Z,2.69
2019-03-24T02:37:51.759Z,2.70
2019-03-24T02:40:21.381Z,2.70
2019-03-24T02:42:51.122Z,2.69
2019-03-24T02:45:20.786Z,2.58
2019-03-24T02:47:50.389Z,2.51
2019-03-24T02:50:20.081Z,2.50
2019-03-24T02:52:49.759Z,2.47
2019-03-24T02:55:20.756Z,2.49
2019-03-24T02:57:50.510Z,2.53
2019-03-24T03:00:20.274Z,2.50
2019-03-24T03:02:50.092Z,2.50
2019-03-24T03:05:19.699Z,2.33
2019-03-24T03:07:49.392Z,2.31
2019-03-24T03:10:21.377Z,2.20
2019-03-24T03:12:50.994Z,2.18
2019-03-24T03:15:21.847Z,2.30
2019-03-24T03:17:51.457Z,2.26
2019-03-24T03:20:22.137Z,2.26
2019-03-24T03:22:51.795Z,2.34
2019-03-24T03:25:26.876Z,2.28
2019-03-24T03:27:56.896Z,2.33
2019-03-24T03:30:26.514Z,2.41
2019-03-24T03:32:59.233Z,2.35
2019-03-24T03:35:30.341Z,2.37
2019-03-24T03:37:59.941Z,2.28
2019-03-24T03:40:29.658Z,2.23
2019-03-24T03:42:59.283Z,2.17
2019-03-24T03:45:30.386Z,2.11
2019-03-24T03:48:00.270Z,2.06
2019-03-24T03:50:29.858Z,2.08
2019-03-24T03:53:03.001Z,2.11
2019-03-24T03:55:34.024Z,2.13
2019-03-24T03:58:03.726Z,2.09
2019-03-24T04:00:34.216Z,2.03
2019-03-24T04:03:04.002Z,2.06
2019-03-24T04:05:34.710Z,2.04
2019-03-24T04:08:04.738Z,2.12
2019-03-24T04:10:34.363Z,2.12
2019-03-24T04:13:04.098Z,2.12
2019-03-24T04:15:33.714Z,2.09
2019-03-24T04:18:03.332Z,2.07
2019-03-24T04:20:32.938Z,2.03
2019-03-24T04:23:02.564Z,1.97
2019-03-24T04:25:32.248Z,1.98
2019-03-24T04:28:01.923Z,2.00
2019-03-24T04:30:32.048Z,1.96
2019-03-24T04:33:03.722Z,1.99
2019-03-24T04:35:34.612Z,1.97
2019-03-24T04:38:04.349Z,1.96
2019-03-24T04:40:34.095Z,1.90
2019-03-24T04:43:03.744Z,1.85
2019-03-24T04:45:33.354Z,1.90
2019-03-24T04:48:02.958Z,1.85
2019-03-24T04:50:32.618Z,1.71
2019-03-24T04:53:04.514Z,1.69
2019-03-24T04:55:35.668Z,1.70
2019-03-24T04:58:05.355Z,1.67
2019-03-24T05:00:36.751Z,1.73
2019-03-24T05:03:06.374Z,1.73
2019-03-24T05:05:38.096Z,1.64
2019-03-24T05:08:11.022Z,1.61
2019-03-24T05:10:40.673Z,1.64
2019-03-24T05:13:10.312Z,1.69
2019-03-24T05:15:41.161Z,1.68
2019-03-24T05:18:13.137Z,1.66
2019-03-24T05:20:43.246Z,1.62
2019-03-24T05:23:12.839Z,1.71
2019-03-24T05:25:43.627Z,1.74
2019-03-24T05:28:13.340Z,1.70
2019-03-24T05:30:42.991Z,1.69
2019-03-24T05:33:12.632Z,1.66
2019-03-24T05:35:42.283Z,1.68
2019-03-24T05:38:12.148Z,1.76
2019-03-24T05:40:41.936Z,1.82
2019-03-24T05:43:11.603Z,1.88
2019-03-24T05:45:41.696Z,1.91
2019-03-24T05:48:11.299Z,1.86
2019-03-24T05:50:40.971Z,1.92
2019-03-24T05:53:10.692Z,1.90
2019-03-24T05:55:40.786Z,2.02
2019-03-24T05:58:10.449Z,2.05
2019-03-24T06:00:41.968Z,2.08
2019-03-24T06:03:11.718Z,2.16
2019-03-24T06:05:42.360Z,2.21
2019-03-24T06:08:16.343Z,2.30
2019-03-24T06:10:46.000Z,2.47
2019-03-24T06:13:15.632Z,2.52
2019-03-24T06:15:46.608Z,2.56
2019-03-24T06:18:16.227Z,2.65
2019-03-24T06:20:47.012Z,2.71
2019-03-24T06:23:16.689Z,2.92
2019-03-24T06:25:47.972Z,2.95
2019-03-24T06:28:19.678Z,3.07
2019-03-24T06:30:49.293Z,3.28
2019-03-24T06:33:18.910Z,3.38
2019-03-24T06:35:50.036Z,3.46
2019-03-24T06:38:19.813Z,3.46
2019-03-24T06:40:49.457Z,3.67
2019-03-24T06:43:19.190Z,3.77
2019-03-24T06:45:50.025Z,3.89
2019-03-24T06:48:21.219Z,4.07
2019-03-24T06:50:51.018Z,4.22
2019-03-24T06:53:22.690Z,4.17
2019-03-24T06:55:53.501Z,4.44
2019-03-24T06:58:23.190Z,4.71
2019-03-24T07:00:56.195Z,4.83
2019-03-24T07:03:25.955Z,4.62
2019-03-24T07:05:58.844Z,5.35
2019-03-24T07:08:29.718Z,5.57
2019-03-24T07:10:59.340Z,5.95
2019-03-24T07:13:30.300Z,5.94
2019-03-24T07:16:00.171Z,5.97
2019-03-24T07:18:30.794Z,6.18
2019-03-24T07:21:04.712Z,5.93
2019-03-24T07:23:35.510Z,5.09
2019-03-24T07:26:05.142Z,5.86
2019-03-24T07:28:37.260Z,5.67
2019-03-24T07:31:07.858Z,6.30
2019-03-24T07:33:38.893Z,7.03
2019-03-24T07:36:08.589Z,7.28
2019-03-24T07:38:38.316Z,7.69
2019-03-24T07:41:08.084Z,7.98
2019-03-24T07:43:37.742Z,8.14
2019-03-24T07:46:07.369Z,8.00
2019-03-24T07:48:37.038Z,8.35
2019-03-24T07:51:06.643Z,8.65
2019-03-24T07:53:36.293Z,8.59
2019-03-24T07:56:07.613Z,8.54
2019-03-24T07:58:37.262Z,8.69
2019-03-24T08:01:09.596Z,9.33
2019-03-24T08:03:40.881Z,9.63
2019-03-24T08:06:12.126Z,9.97
2019-03-24T08:08:44.630Z,10.16
2019-03-24T08:11:14.236Z,10.93
2019-03-24T08:13:55.276Z,11.05
2019-03-24T08:16:25.579Z,11.07
2019-03-24T08:18:55.187Z,11.05
2019-03-24T08:21:24.869Z,10.19
2019-03-24T08:23:55.679Z,10.48
2019-03-24T08:26:25.273Z,10.61
2019-03-24T08:28:54.933Z,10.20
2019-03-24T08:31:26.700Z,9.91
2019-03-24T08:33:57.773Z,9.80
2019-03-24T08:36:28.017Z,9.89
2019-03-24T08:38:57.649Z,10.29
2019-03-24T08:41:28.266Z,10.39
2019-03-24T08:43:58.919Z,10.73
2019-03-24T08:46:28.564Z,10.95
2019-03-24T08:48:58.182Z,11.72
2019-03-24T08:51:28.686Z,11.56
2019-03-24T08:53:59.655Z,11.79
2019-03-24T08:56:29.535Z,12.28
2019-03-24T08:58:59.285Z,12.91
2019-03-24T09:01:29.024Z,13.57
2019-03-24T09:03:59.751Z,13.24
2019-03-24T09:06:29.376Z,13.21
2019-03-24T09:08:59.088Z,13.30
2019-03-24T09:11:31.546Z,13.04
2019-03-24T09:14:02.896Z,12.72
2019-03-24T09:16:32.675Z,13.34
2019-03-24T09:19:02.319Z,13.56
2019-03-24T09:21:32.070Z,13.52
2019-03-24T09:24:03.156Z,13.39
2019-03-24T09:26:32.879Z,14.62
2019-03-24T09:29:02.481Z,14.81
2019-03-24T09:31:32.135Z,15.26
2019-03-24T09:34:04.102Z,14.65
2019-03-24T09:36:33.692Z,13.34
2019-03-24T09:39:05.887Z,13.13
2019-03-24T09:41:35.628Z,13.79
2019-03-24T09:44:06.359Z,14.68
2019-03-24T09:46:39.401Z,14.05
2019-03-24T09:49:10.174Z,14.58
2019-03-24T09:51:39.803Z,15.46
2019-03-24T09:54:10.747Z,16.01
2019-03-24T09:56:44.857Z,16.35
2019-03-24T09:59:16.776Z,14.87
2019-03-24T10:01:46.558Z,14.61
2019-03-24T10:04:16.291Z,15.81
2019-03-24T10:06:45.969Z,16.34
2019-03-24T10:09:15.547Z,16.28
2019-03-24T10:11:45.272Z,16.69
2019-03-24T10:14:15.026Z,15.92
2019-03-24T10:16:44.710Z,16.49
2019-03-24T10:19:14.611Z,15.11
2019-03-24T10:21:47.854Z,16.28
2019-03-24T10:24:17.548Z,15.72
2019-03-24T10:26:49.265Z,15.67
2019-03-24T10:29:21.238Z,16.53
2019-03-24T10:31:50.904Z,15.18
2019-03-24T10:34:21.777Z,16.61
2019-03-24T10:36:51.478Z,17.09
2019-03-24T10:39:21.100Z,15.83
2019-03-24T10:41:50.744Z,15.73
2019-03-24T10:44:21.426Z,15.15
2019-03-24T10:46:52.085Z,15.54
2019-03-24T10:49:25.131Z,15.26
2019-03-24T10:51:54.164Z,14.77
2019-03-24T10:54:26.695Z,15.24
2019-03-24T10:56:56.289Z,15.13
2019-03-24T10:59:26.020Z,14.75
2019-03-24T11:01:56.763Z,14.76
2019-03-24T11:04:26.487Z,14.81
2019-03-24T11:06:56.067Z,14.34
2019-03-24T11:09:25.710Z,14.15
2019-03-24T11:11:55.345Z,13.95
2019-03-24T11:14:26.586Z,14.06
2019-03-24T11:16:56.229Z,14.98
2019-03-24T11:19:35.380Z,15.33
2019-03-24T11:21:57.351Z,15.00
2019-03-24T11:24:29.093Z,16.79
2019-03-24T11:26:58.894Z,17.24
2019-03-24T11:29:28.559Z,17.93
2019-03-24T11:31:58.199Z,16.89
2019-03-24T11:34:29.045Z,17.86
2019-03-24T11:36:58.661Z,16.66
2019-03-24T11:39:28.290Z,17.38
2019-03-24T11:41:57.954Z,16.80
2019-03-24T11:44:27.589Z,17.02
2019-03-24T11:46:57.316Z,15.87
2019-03-24T11:49:26.925Z,14.71
2019-03-24T11:51:56.688Z,16.80
2019-03-24T11:54:26.484Z,17.25
2019-03-24T11:56:56.153Z,16.78
2019-03-24T11:59:25.850Z,15.96
2019-03-24T12:01:58.792Z,17.23
2019-03-24T12:04:28.437Z,17.23
2019-03-24T12:06:58.147Z,16.20
2019-03-24T12:09:27.759Z,16.02
2019-03-24T12:11:57.440Z,16.37
2019-03-24T12:14:27.107Z,16.07
2019-03-24T12:16:56.721Z,15.47
2019-03-24T12:19:27.405Z,15.42
2019-03-24T12:21:57.011Z,15.56
2019-03-24T12:24:26.587Z,15.44
2019-03-24T12:26:58.335Z,15.54
2019-03-24T12:29:27.963Z,15.56
2019-03-24T12:31:57.781Z,15.76
2019-03-24T12:34:28.651Z,16.99
2019-03-24T12:36:58.355Z,16.84
2019-03-24T12:39:30.109Z,16.39
2019-03-24T12:41:59.719Z,16.49
2019-03-24T12:44:30.492Z,16.07
2019-03-24T12:47:00.246Z,16.28
2019-03-24T12:49:29.888Z,16.18
2019-03-24T12:52:01.582Z,16.36
2019-03-24T12:54:32.422Z,15.74
2019-03-24T12:57:02.071Z,16.24
2019-03-24T12:59:31.739Z,16.54
2019-03-24T13:02:01.444Z,17.35
2019-03-24T13:04:31.083Z,17.68
2019-03-24T13:07:02.783Z,17.56
2019-03-24T13:09:33.712Z,17.56
2019-03-24T13:12:03.580Z,17.82
2019-03-24T13:14:33.145Z,16.69
2019-03-24T13:17:02.881Z,16.32
2019-03-24T13:19:32.580Z,16.26
2019-03-24T13:22:02.763Z,15.14
2019-03-24T13:24:32.368Z,15.58
2019-03-24T13:27:04.032Z,15.24
2019-03-24T13:29:33.707Z,14.73
2019-03-24T13:32:04.700Z,14.22
2019-03-24T13:34:34.416Z,13.94
2019-03-24T13:37:04.321Z,14.09
2019-03-24T13:39:34.105Z,13.92
2019-03-24T13:42:06.987Z,13.96
2019-03-24T13:44:36.679Z,13.65
2019-03-24T13:47:06.299Z,13.79
2019-03-24T13:49:36.008Z,13.94
2019-03-24T13:52:07.016Z,13.81
2019-03-24T13:54:36.666Z,13.69
2019-03-24T13:57:06.469Z,13.54
2019-03-24T13:59:36.108Z,13.51
2019-03-24T14:02:05.806Z,13.79
2019-03-24T14:04:35.388Z,13.63
2019-03-24T14:07:05.096Z,13.54
2019-03-24T14:09:34.823Z,13.77
2019-03-24T14:12:04.387Z,13.58
2019-03-24T14:14:34.847Z,13.45
2019-03-24T14:17:04.436Z,13.51
2019-03-24T14:19:34.033Z,13.33
2019-03-24T14:22:03.638Z,13.74
2019-03-24T14:24:33.452Z,13.62
2019-03-24T14:27:03.398Z,13.86
2019-03-24T14:29:33.034Z,13.71
2019-03-24T14:32:02.767Z,13.87
2019-03-24T14:34:34.708Z,13.70
2019-03-24T14:37:04.299Z,13.74
2019-03-24T14:39:33.914Z,13.69
2019-03-24T14:42:05.081Z,13.87
2019-03-24T14:44:34.723Z,13.60
2019-03-24T14:47:04.317Z,13.95
2019-03-24T14:49:33.934Z,13.90
2019-03-24T14:52:03.492Z,14.00
2019-03-24T14:54:33.115Z,14.07
2019-03-24T14:57:07.107Z,13.87
2019-03-24T14:59:36.780Z,14.05
2019-03-24T15:02:07.939Z,13.86
2019-03-24T15:04:37.568Z,13.94
2019-03-24T15:07:07.193Z,14.06
2019-03-24T15:09:37.012Z,14.38
2019-03-24T15:12:08.137Z,14.19
2019-03-24T15:14:37.969Z,14.06
2019-03-24T15:17:07.590Z,13.86
2019-03-24T15:19:37.258Z,14.01
2019-03-24T15:22:08.013Z,14.34
2019-03-24T15:24:37.650Z,14.18
2019-03-24T15:27:07.252Z,14.15
2019-03-24T15:29:36.889Z,14.32
2019-03-24T15:32:06.458Z,14.58
2019-03-24T15:34:36.090Z,14.74
2019-03-24T15:37:05.664Z,14.80
2019-03-24T15:39:35.242Z,14.71
2019-03-24T15:42:04.866Z,15.13
2019-03-24T15:44:34.449Z,14.84
2019-03-24T15:47:04.062Z,14.45
2019-03-24T15:49:33.655Z,14.14
2019-03-24T15:52:03.261Z,13.89
2019-03-24T15:54:32.874Z,13.51
2019-03-24T15:57:02.579Z,13.64
2019-03-24T15:59:32.208Z,13.33
2019-03-24T16:02:01.810Z,13.10
2019-03-24T16:04:31.503Z,13.03
2019-03-24T16:07:01.374Z,12.76
2019-03-24T16:09:30.980Z,12.59
2019-03-24T16:12:00.613Z,12.47
2019-03-24T16:14:30.193Z,12.37
2019-03-24T16:17:00.136Z,12.28
2019-03-24T16:19:29.796Z,12.25
2019-03-24T16:22:01.599Z,12.19
2019-03-24T16:24:31.721Z,12.15
2019-03-24T16:27:04.824Z,12.08
2019-03-24T16:29:34.467Z,12.06
2019-03-24T16:32:05.314Z,12.04
2019-03-24T16:34:37.443Z,12.02
2019-03-24T16:37:07.217Z,11.74
2019-03-24T16:39:38.068Z,11.72
2019-03-24T16:42:08.849Z,11.55
2019-03-24T16:44:38.457Z,11.54
2019-03-24T16:47:09.341Z,11.50
2019-03-24T16:49:38.910Z,11.52
2019-03-24T16:52:10.009Z,11.54
2019-03-24T16:54:39.876Z,11.47
2019-03-24T16:57:09.846Z,11.53
2019-03-24T16:59:39.666Z,11.30
2019-03-24T17:02:10.539Z,11.23
2019-03-24T17:04:40.499Z,11.40
2019-03-24T17:07:10.133Z,11.42
2019-03-24T17:09:39.818Z,11.38
2019-03-24T17:12:10.428Z,11.48
2019-03-24T17:14:40.168Z,11.43
2019-03-24T17:17:11.464Z,11.52
2019-03-24T17:19:41.196Z,11.40
2019-03-24T17:22:12.445Z,11.29
2019-03-24T17:24:42.076Z,11.36
2019-03-24T17:27:11.760Z,11.40
2019-03-24T17:29:45.300Z,11.58
2019-03-24T17:32:16.375Z,11.26
2019-03-24T17:34:47.462Z,11.31
2019-03-24T17:37:19.323Z,11.24
2019-03-24T17:39:49.017Z,11.26
2019-03-24T17:42:20.633Z,11.25
2019-03-24T17:44:50.430Z,11.04
2019-03-24T17:47:20.206Z,10.90
2019-03-24T17:49:50.228Z,10.93
2019-03-24T17:52:23.085Z,10.97
2019-03-24T17:54:52.962Z,10.90
2019-03-24T17:57:22.656Z,10.80
2019-03-24T17:59:52.290Z,10.87
2019-03-24T18:02:23.215Z,10.98
2019-03-24T18:04:53.034Z,10.78
2019-03-24T18:07:22.851Z,10.65
2019-03-24T18:09:52.446Z,10.48
2019-03-24T18:12:22.148Z,10.34
2019-03-24T18:14:51.763Z,10.25
2019-03-24T18:17:21.560Z,10.13
2019-03-24T18:19:52.370Z,10.05
2019-03-24T18:22:23.600Z,9.96
2019-03-24T18:24:53.232Z,9.79
2019-03-24T18:27:23.009Z,9.70
2019-03-24T18:29:53.602Z,9.53
2019-03-24T18:32:23.350Z,9.30
2019-03-24T18:34:55.460Z,9.26
2019-03-24T18:37:27.287Z,9.14
2019-03-24T18:39:57.179Z,9.10
2019-03-24T18:42:32.269Z,8.90
2019-03-24T18:45:02.001Z,8.61
2019-03-24T18:47:31.703Z,8.39
2019-03-24T18:50:01.533Z,8.46
2019-03-24T18:52:33.668Z,8.47
2019-03-24T18:55:03.781Z,8.43
2019-03-24T18:57:33.694Z,8.36
2019-03-24T19:00:05.778Z,8.31
2019-03-24T19:02:36.683Z,8.22
2019-03-24T19:05:06.620Z,8.06
2019-03-24T19:07:36.488Z,8.02
2019-03-24T19:10:06.736Z,7.99
2019-03-24T19:12:37.766Z,7.94
2019-03-24T19:15:09.137Z,7.79
2019-03-24T19:17:39.285Z,7.69
2019-03-24T19:20:11.496Z,7.68
2019-03-24T19:22:43.691Z,7.61
2019-03-24T19:25:13.496Z,7.56
2019-03-24T19:27:43.526Z,7.38
2019-03-24T19:30:13.495Z,7.20
2019-03-24T19:32:43.318Z,7.19
2019-03-24T19:35:13.031Z,7.18
2019-03-24T19:37:43.007Z,7.13
2019-03-24T19:40:26.480Z,6.99
2019-03-24T19:42:56.196Z,6.97
2019-03-24T19:45:25.876Z,7.07
2019-03-24T19:47:55.783Z,7.00
2019-03-24T19:50:25.466Z,6.64
2019-03-24T19:52:55.174Z,6.62
2019-03-24T19:55:24.798Z,6.62
2019-03-24T19:57:56.851Z,6.58
2019-03-24T20:00:26.504Z,6.46
2019-03-24T20:02:57.362Z,6.37
2019-03-24T20:05:27.650Z,6.28
2019-03-24T20:07:58.532Z,6.13
2019-03-24T20:10:28.288Z,6.32
2019-03-24T20:12:59.316Z,6.37
2019-03-24T20:15:28.970Z,6.35
2019-03-24T20:18:00.931Z,6.26
2019-03-24T20:20:30.626Z,6.26
2019-03-24T20:23:01.814Z,6.06
2019-03-24T20:25:31.681Z,5.83
2019-03-24T20:28:05.367Z,5.96
2019-03-24T20:30:40.065Z,5.99
2019-03-24T20:33:11.323Z,5.98
2019-03-24T20:35:41.077Z,5.92
2019-03-24T20:38:12.965Z,5.79
2019-03-24T20:40:43.935Z,5.66
2019-03-24T20:43:15.043Z,5.54
2019-03-24T20:45:44.699Z,5.62
2019-03-24T20:48:14.380Z,5.59
2019-03-24T20:50:43.976Z,5.54
2019-03-24T20:53:18.336Z,5.55
2019-03-24T20:55:45.039Z,5.51
2019-03-24T20:58:16.949Z,5.48
2019-03-24T21:00:46.684Z,5.36
2019-03-24T21:03:16.412Z,5.41
2019-03-24T21:05:46.159Z,5.50
2019-03-24T21:08:15.811Z,5.20
2019-03-24T21:10:45.533Z,5.10
2019-03-24T21:13:15.275Z,4.91
2019-03-24T21:15:45.032Z,4.95
2019-03-24T21:18:14.593Z,4.98
2019-03-24T21:20:44.272Z,4.79
2019-03-24T21:23:14.768Z,4.71
2019-03-24T21:25:45.267Z,4.78
2019-03-24T21:28:17.888Z,4.76
2019-03-24T21:30:48.711Z,4.69
2019-03-24T21:33:20.305Z,4.62
2019-03-24T21:35:50.347Z,4.43
2019-03-24T21:38:20.099Z,4.50
2019-03-24T21:40:56.659Z,4.55
2019-03-24T21:43:28.776Z,4.35
2019-03-24T21:46:02.372Z,4.19
2019-03-24T21:48:32.114Z,4.08
2019-03-24T21:51:02.610Z,4.20
2019-03-24T21:53:40.663Z,4.02
2019-03-24T21:56:06.045Z,4.01
2019-03-24T21:58:45.389Z,4.07
2019-03-24T22:01:15.068Z,4.14
2019-03-24T22:03:44.773Z,4.00
2019-03-24T22:06:14.428Z,3.98
2019-03-24T22:08:45.192Z,4.13
2019-03-24T22:11:14.917Z,4.29
2019-03-24T22:13:44.650Z,4.35
2019-03-24T22:16:14.325Z,4.27
2019-03-24T22:18:44.095Z,4.16
2019-03-24T22:21:13.739Z,4.03
2019-03-24T22:23:52.249Z,4.00
2019-03-24T22:26:17.416Z,3.99
2019-03-24T22:28:47.119Z,4.17
2019-03-24T22:31:16.726Z,4.19
2019-03-24T22:33:46.438Z,3.98
2019-03-24T22:36:16.104Z,3.88
2019-03-24T22:38:45.734Z,3.72
2019-03-24T22:41:15.339Z,3.49
2019-03-24T22:43:45.076Z,3.45
2019-03-24T22:46:17.108Z,3.32
2019-03-24T22:48:46.849Z,3.20
2019-03-24T22:51:16.551Z,3.28
2019-03-24T22:53:46.365Z,3.53
2019-03-24T22:56:15.976Z,3.29
2019-03-24T22:58:47.694Z,3.42
2019-03-24T23:01:22.473Z,3.14
2019-03-24T23:03:52.220Z,3.43
2019-03-24T23:06:25.572Z,3.32
2019-03-24T23:08:55.257Z,3.23
2019-03-24T23:11:24.953Z,2.85
2019-03-24T23:13:55.676Z,2.93
2019-03-24T23:16:25.327Z,2.95
2019-03-24T23:18:54.969Z,2.81
2019-03-24T23:21:24.657Z,2.90
2019-03-24T23:23:54.365Z,2.76
2019-03-24T23:26:24.391Z,2.89
2019-03-24T23:28:54.112Z,2.90
2019-03-24T23:31:23.755Z,2.71
2019-03-24T23:33:55.395Z,2.50
2019-03-24T23:36:25.071Z,2.80
2019-03-24T23:38:57.325Z,2.80
2019-03-24T23:41:27.223Z,2.66
2019-03-24T23:43:57.352Z,2.61
2019-03-24T23:46:27.076Z,2.76
2019-03-24T23:49:00.368Z,2.89
2019-03-24T23:51:30.420Z,2.85
2019-03-24T23:54:02.047Z,2.50
2019-03-24T23:56:33.765Z,2.52
2019-03-24T23:59:03.437Z,2.68
